createdAt,value
2023-03-02T00:00:11.565Z,13.40
2023-03-02T00:05:16.369Z,13.40
2023-03-02T00:10:19.905Z,13.40
2023-03-02T00:15:23.334Z,13.40
2023-03-02T00:20:29.137Z,13.40
2023-03-02T00:25:32.499Z,13.40
2023-03-02T00:30:36.247Z,13.30
2023-03-02T00:35:42.494Z,13.30
2023-03-02T00:40:47.379Z,13.30
2023-03-02T00:45:50.837Z,13.30
2023-03-02T00:50:55.550Z,13.30
2023-03-02T00:56:03.199Z,13.30
2023-03-02T01:01:10.541Z,13.20
2023-03-02T01:06:21.245Z,13.20
2023-03-02T01:11:25.123Z,13.20
2023-03-02T01:16:28.551Z,13.20
2023-03-02T01:21:38.738Z,13.20
2023-03-02T01:26:44.256Z,13.20
2023-03-02T01:31:48.072Z,13.20
2023-03-02T01:36:53.744Z,13.20
2023-03-02T01:41:57.544Z,13.20
2023-03-02T01:47:01.210Z,13.20
2023-03-02T01:52:06.346Z,13.10
2023-03-02T01:57:11.673Z,13.10
2023-03-02T02:02:15.326Z,13.10
2023-03-02T02:07:20.110Z,13.10
2023-03-02T02:12:24.853Z,13.10
2023-03-02T02:17:31.170Z,13.10
2023-03-02T02:22:44.729Z,13.10
2023-03-02T02:27:49.918Z,13.10
2023-03-02T02:32:55.583Z,13.10
2023-03-02T02:38:04.650Z,13.10
2023-03-02T02:43:13.926Z,13.10
2023-03-02T02:48:19.719Z,13.10
2023-03-02T02:53:28.808Z,13.10
2023-03-02T02:58:37.134Z,13.00
2023-03-02T03:03:40.974Z,13.00
2023-03-02T03:09:00.230Z,12.90
2023-03-02T03:14:14.431Z,12.90
2023-03-02T03:19:23.018Z,12.80
2023-03-02T03:24:29.323Z,12.80
2023-03-02T03:29:36.846Z,12.80
2023-03-02T03:34:45.498Z,12.70
2023-03-02T03:40:03.946Z,12.60
2023-03-02T03:45:13.127Z,12.60
2023-03-02T03:50:18.526Z,12.60
2023-03-02T03:55:24.221Z,12.50
2023-03-02T04:00:29.338Z,12.50
2023-03-02T04:05:39.139Z,12.50
2023-03-02T04:10:42.960Z,12.50
2023-03-02T04:15:48.634Z,12.40
2023-03-02T04:20:52.680Z,12.40
2023-03-02T04:25:56.154Z,12.40
2023-03-02T04:31:01.422Z,12.40
2023-03-02T04:36:08.944Z,12.30
2023-03-02T04:41:15.347Z,12.30
2023-03-02T04:46:23.912Z,12.30
2023-03-02T04:51:30.793Z,12.30
2023-03-02T04:56:34.943Z,12.30
2023-03-02T05:01:41.553Z,12.20
2023-03-02T05:06:45.200Z,12.20
2023-03-02T05:11:48.816Z,12.20
2023-03-02T05:16:54.121Z,12.10
2023-03-02T05:21:57.622Z,12.10
2023-03-02T05:27:01.022Z,12.10
2023-03-02T05:32:10.794Z,12.00
2023-03-02T05:37:14.379Z,12.00
2023-03-02T05:42:20.508Z,12.00
2023-03-02T05:47:25.387Z,12.00
2023-03-02T05:52:28.875Z,12.00
2023-03-02T05:57:32.317Z,11.90
2023-03-02T06:02:39.401Z,11.90
2023-03-02T06:07:42.795Z,11.90
2023-03-02T06:12:46.210Z,11.90
2023-03-02T06:17:53.160Z,11.90
2023-03-02T06:22:56.762Z,11.90
2023-03-02T06:28:00.265Z,11.90
2023-03-02T06:33:05.314Z,11.80
2023-03-02T06:38:08.637Z,11.80
2023-03-02T06:43:12.366Z,11.80
2023-03-02T06:48:17.518Z,11.80
2023-03-02T06:53:23.030Z,11.80
2023-03-02T06:58:26.462Z,11.80
2023-03-02T07:03:31.441Z,11.80
2023-03-02T07:08:36.131Z,11.90
2023-03-02T07:13:39.697Z,12.50
2023-03-02T07:18:44.456Z,13.60
2023-03-02T07:23:47.828Z,14.70
2023-03-02T07:28:51.365Z,15.50
2023-03-02T07:33:56.090Z,16.00
2023-03-02T07:38:59.504Z,16.20
2023-03-02T07:44:02.985Z,16.10
2023-03-02T07:49:08.001Z,16.00
2023-03-02T07:54:11.487Z,15.80
2023-03-02T07:59:15.107Z,15.50
2023-03-02T08:04:20.187Z,15.30
2023-03-02T08:09:23.470Z,14.90
2023-03-02T08:14:26.922Z,14.70
2023-03-02T08:19:31.730Z,14.50
2023-03-02T08:24:35.245Z,14.30
2023-03-02T08:29:39.172Z,14.10
2023-03-02T08:34:51.326Z,13.90
2023-03-02T08:39:54.611Z,13.80
2023-03-02T08:44:58.949Z,13.70
2023-03-02T08:50:08.417Z,13.60
2023-03-02T08:55:12.778Z,13.50
2023-03-02T09:00:18.147Z,13.60
2023-03-02T09:05:22.988Z,13.50
2023-03-02T09:10:26.677Z,13.50
2023-03-02T09:15:30.299Z,13.50
2023-03-02T09:20:35.757Z,13.60
2023-03-02T09:25:39.108Z,13.70
2023-03-02T09:30:42.430Z,13.80
2023-03-02T09:35:47.794Z,13.90
2023-03-02T09:41:16.949Z,14.10
2023-03-02T09:46:26.882Z,14.30
2023-03-02T09:51:36.890Z,14.50
2023-03-02T09:56:44.841Z,14.60
2023-03-02T10:01:53.646Z,14.80
2023-03-02T10:07:02.925Z,15.00
2023-03-02T10:12:20.355Z,15.30
2023-03-02T10:17:48.365Z,15.50
2023-03-02T10:22:58.721Z,15.70
2023-03-02T10:28:10.282Z,16.00
2023-03-02T10:33:17.188Z,16.30
2023-03-02T10:38:23.192Z,16.50
2023-03-02T10:43:31.695Z,16.70
2023-03-02T10:48:49.476Z,17.00
2023-03-02T10:54:04.931Z,17.30
2023-03-02T10:59:36.760Z,17.60
2023-03-02T11:04:40.326Z,17.80
2023-03-02T11:09:45.243Z,18.20
2023-03-02T11:14:48.584Z,18.40
2023-03-02T11:19:55.281Z,18.70
2023-03-02T11:25:05.546Z,18.90
2023-03-02T11:30:16.043Z,19.20
2023-03-02T11:35:32.293Z,19.40
2023-03-02T11:40:46.730Z,19.60
2023-03-02T11:46:01.782Z,19.80
2023-03-02T11:51:08.222Z,20.00
2023-03-02T11:56:13.409Z,20.10
2023-03-02T12:01:22.351Z,20.20
2023-03-02T12:06:37.688Z,20.30
2023-03-02T12:11:47.558Z,20.40
2023-03-02T12:16:51.337Z,20.40
2023-03-02T12:22:00.322Z,20.40
2023-03-02T12:27:08.292Z,20.50
2023-03-02T12:32:27.425Z,20.50
2023-03-02T12:37:34.431Z,20.50
2023-03-02T12:42:51.137Z,20.50
2023-03-02T12:48:03.020Z,20.50
2023-03-02T12:53:16.343Z,20.50
2023-03-02T12:58:23.107Z,20.40
2023-03-02T13:03:27.530Z,20.30
2023-03-02T13:08:32.287Z,20.30
2023-03-02T13:13:41.666Z,20.10
2023-03-02T13:18:45.889Z,20.00
2023-03-02T13:23:51.829Z,19.90
2023-03-02T13:29:08.718Z,19.70
2023-03-02T13:34:23.471Z,19.50
2023-03-02T13:39:29.155Z,19.40
2023-03-02T13:44:35.882Z,19.20
2023-03-02T13:49:39.225Z,19.10
2023-03-02T13:54:45.056Z,19.00
2023-03-02T13:59:50.199Z,18.90
2023-03-02T14:04:54.146Z,18.90
2023-03-02T14:09:57.706Z,18.80
2023-03-02T14:15:04.640Z,18.70
2023-03-02T14:20:11.211Z,18.60
2023-03-02T14:25:14.889Z,18.60
2023-03-02T14:30:22.853Z,18.50
2023-03-02T14:35:26.984Z,18.40
2023-03-02T14:40:30.387Z,18.40
2023-03-02T14:45:35.634Z,18.40
2023-03-02T14:50:41.833Z,18.30
2023-03-02T14:55:45.762Z,18.30
2023-03-02T15:00:51.031Z,18.30
2023-03-02T15:06:01.164Z,18.30
2023-03-02T15:11:04.842Z,18.20
2023-03-02T15:16:11.488Z,18.20
2023-03-02T15:21:18.251Z,18.20
2023-03-02T15:26:21.626Z,18.20
2023-03-02T15:31:28.300Z,18.20
2023-03-02T15:36:31.653Z,18.20
2023-03-02T15:41:35.375Z,18.10
2023-03-02T15:46:40.528Z,18.10
2023-03-02T15:51:43.909Z,18.10
2023-03-02T15:56:51.954Z,18.10
2023-03-02T16:01:59.691Z,18.00
2023-03-02T16:07:03.290Z,18.00
2023-03-02T16:12:07.431Z,18.00
2023-03-02T16:17:12.480Z,18.00
2023-03-02T16:22:16.103Z,18.00
2023-03-02T16:27:19.483Z,18.00
2023-03-02T16:32:24.462Z,18.10
2023-03-02T16:37:27.833Z,18.00
2023-03-02T16:42:31.944Z,18.00
2023-03-02T16:47:37.442Z,18.00
2023-03-02T16:52:41.313Z,17.90
2023-03-02T16:57:44.915Z,17.90
2023-03-02T17:02:51.413Z,17.90
2023-03-02T17:07:57.116Z,17.80
2023-03-02T17:13:00.818Z,17.70
2023-03-02T17:18:06.492Z,17.70
2023-03-02T17:23:12.812Z,17.70
2023-03-02T17:28:16.856Z,17.70
2023-03-02T17:33:24.339Z,17.70
2023-03-02T17:38:28.565Z,17.60
2023-03-02T17:43:34.208Z,17.50
2023-03-02T17:48:39.942Z,17.50
2023-03-02T17:53:45.298Z,17.40
2023-03-02T17:58:53.258Z,17.30
2023-03-02T18:03:58.447Z,17.20
2023-03-02T18:09:02.181Z,17.20
2023-03-02T18:14:06.589Z,17.10
2023-03-02T18:19:12.557Z,17.00
2023-03-02T18:24:19.505Z,17.00
2023-03-02T18:29:23.896Z,16.90
2023-03-02T18:34:34.021Z,16.90
2023-03-02T18:39:40.035Z,16.80
2023-03-02T18:44:45.875Z,16.70
2023-03-02T18:49:52.601Z,16.60
2023-03-02T18:54:58.362Z,16.60
2023-03-02T19:00:03.105Z,16.50
2023-03-02T19:05:10.418Z,16.40
2023-03-02T19:10:20.549Z,16.40
2023-03-02T19:15:26.813Z,16.40
2023-03-02T19:20:35.939Z,16.40
2023-03-02T19:25:42.704Z,16.30
2023-03-02T19:30:47.838Z,16.30
2023-03-02T19:35:54.495Z,16.30
2023-03-02T19:41:01.158Z,16.20
2023-03-02T19:46:06.425Z,16.10
2023-03-02T19:51:14.105Z,16.10
2023-03-02T19:56:21.684Z,16.00
2023-03-02T20:01:28.080Z,15.90
2023-03-02T20:06:35.877Z,15.80
2023-03-02T20:11:42.932Z,15.80
2023-03-02T20:16:48.582Z,15.70
2023-03-02T20:21:56.908Z,15.70
2023-03-02T20:27:03.286Z,15.60
2023-03-02T20:32:10.350Z,15.50
2023-03-02T20:37:21.434Z,15.50
2023-03-02T20:42:25.874Z,15.40
2023-03-02T20:47:31.725Z,15.30
2023-03-02T20:52:39.078Z,15.20
2023-03-02T20:57:44.362Z,15.20
2023-03-02T21:02:50.534Z,15.10
2023-03-02T21:07:58.867Z,15.10
2023-03-02T21:13:03.572Z,15.00
2023-03-02T21:18:07.287Z,14.90
2023-03-02T21:23:14.256Z,14.90
2023-03-02T21:28:17.910Z,14.80
2023-03-02T21:33:21.706Z,14.70
2023-03-02T21:38:28.562Z,14.70
2023-03-02T21:43:32.278Z,14.60
2023-03-02T21:48:35.873Z,14.60
2023-03-02T21:53:41.332Z,14.50
2023-03-02T21:58:44.642Z,14.50
2023-03-02T22:03:48.394Z,14.40
2023-03-02T22:08:53.936Z,14.40
2023-03-02T22:13:59.956Z,14.30
2023-03-02T22:19:06.867Z,14.20
2023-03-02T22:24:22.535Z,14.20
2023-03-02T22:29:27.556Z,14.10
2023-03-02T22:34:36.116Z,14.00
2023-03-02T22:39:42.343Z,14.00
2023-03-02T22:44:52.102Z,13.90
2023-03-02T22:49:59.052Z,13.80
2023-03-02T22:55:04.762Z,13.80
2023-03-02T23:00:35.719Z,13.70
2023-03-02T23:05:39.465Z,13.70
2023-03-02T23:10:44.916Z,13.60
2023-03-02T23:15:49.732Z,13.60
2023-03-02T23:20:53.739Z,13.60
2023-03-02T23:25:58.935Z,13.50
2023-03-02T23:31:02.345Z,13.40
2023-03-02T23:36:06.453Z,13.40
2023-03-02T23:41:12.599Z,13.30
2023-03-02T23:46:16.269Z,13.20
2023-03-02T23:51:20.001Z,13.20
2023-03-02T23:56:25.385Z,13.20
